^^
Station Historical Data
Daily Summary for June 21, 2017 Units:  Metric    English   Both
« Previous Day
Next Day »
Daily Weekly Monthly Yearly Custom
  High: Low: Average:
Temperature: 25.6 °C 13.4 °C 19.1 °C
Dew Point: 18.2 °C 9.4 °C 14.8 °C
Humidity: 92 % 61 % 77 %
Wind Speed: 22.5 km/h 0 km/h 7.6 km/h
Wind Gust: 35.4 km/h - -
Wind:- - SSW
Pressure: 1019.5 hPa 1011.7 hPa -
Precipitation: 1.78 mm    
Historical Graphs
 
 


Weather Camera

Weather Camera




Garrymore Current Conditions

Find more about Weather in Mountmellick, IE
Click for weather forecast
Tabular Data for June 21, 2017
Time Temperature Dew Point Pressure Wind Wind Speed Wind Gust Humidity Rainfall Rate (Hourly) solar Conditions
00:00 14 °C 9.6 °C 1018.8 hPa Calm   1.6 km/h 75 % 0 mm 0.0 W/m2 BKN
00:10 13.9 °C 9.7 °C 1018.5 hPa East 1.6 km/h 8 km/h 76 % 0 mm 0.0 W/m2 BKN
00:15 13.9 °C 9.9 °C 1018.5 hPa ENE 1.6 km/h 4.8 km/h 77 % 0 mm 0.0 W/m2 BKN
00:20 13.9 °C 9.9 °C 1018.5 hPa NE 1.6 km/h 4.8 km/h 77 % 0 mm 0.0 W/m2 BKN
00:25 13.4 °C 9.4 °C 1018.8 hPa Calm   3.2 km/h 77 % 0 mm 0.0 W/m2 BKN
00:30 13.4 °C 9.4 °C 1018.5 hPa NE 3.2 km/h 4.8 km/h 77 % 0 mm 0.0 W/m2 BKN
00:35 13.4 °C 9.7 °C 1019.2 hPa NE 1.6 km/h 4.8 km/h 78 % 0 mm 0.0 W/m2 BKN
00:40 13.4 °C 9.7 °C 1019.2 hPa Calm   3.2 km/h 78 % 0 mm 0.0 W/m2 BKN
00:45 13.4 °C 9.8 °C 1018.8 hPa SE 1.6 km/h 3.2 km/h 79 % 0 mm 0.0 W/m2 BKN
00:50 13.4 °C 9.8 °C 1018.8 hPa Calm   3.2 km/h 79 % 0 mm 0.0 W/m2 BKN
00:55 13.4 °C 10 °C 1018.5 hPa Calm   1.6 km/h 80 % 0 mm 0.0 W/m2 BKN
01:00 13.4 °C 10 °C 1018.2 hPa Calm   3.2 km/h 80 % 0 mm 0.0 W/m2 BKN
01:05 13.4 °C 10 °C 1018.5 hPa NNE 1.6 km/h 3.2 km/h 80 % 0 mm 0.0 W/m2 BKN
01:10 13.4 °C 10.2 °C 1018.5 hPa Calm   3.2 km/h 81 % 0 mm 0.0 W/m2 BKN
01:15 13.4 °C 10.2 °C 1018.5 hPa Calm   1.6 km/h 81 % 0 mm 0.0 W/m2 BKN
01:20 13.4 °C 10.2 °C 1018.2 hPa Calm   4.8 km/h 81 % 0 mm 0.0 W/m2 BKN
01:25 13.4 °C 10.4 °C 1018.8 hPa Calm   6.4 km/h 82 % 0 mm 0.0 W/m2 BKN
01:30 13.4 °C 10.4 °C 1019.5 hPa SSW 4.8 km/h 8 km/h 82 % 0 mm 0.0 W/m2 BKN
01:35 13.9 °C 10.9 °C 1019.2 hPa SSW 3.2 km/h 9.7 km/h 82 % 0 mm 0.0 W/m2 BKN
01:40 13.9 °C 10.9 °C 1019.2 hPa South 4.8 km/h 9.7 km/h 82 % 0 mm 0.0 W/m2 BKN
01:45 13.9 °C 10.9 °C 1019.2 hPa South 1.6 km/h 8 km/h 82 % 0 mm 0.0 W/m2 BKN
01:50 13.9 °C 10.9 °C 1018.8 hPa SE 1.6 km/h 4.8 km/h 82 % 0 mm 0.0 W/m2 BKN
01:55 13.9 °C 10.9 °C 1018.8 hPa SE 1.6 km/h 3.2 km/h 82 % 0 mm 0.0 W/m2 BKN
02:00 13.9 °C 10.9 °C 1018.8 hPa SE 3.2 km/h 4.8 km/h 82 % 0 mm 0.0 W/m2 BKN
02:10 13.9 °C 10.9 °C 1018.5 hPa ESE 3.2 km/h 6.4 km/h 82 % 0 mm 0.0 W/m2 BKN
02:15 13.9 °C 11.1 °C 1018.5 hPa ESE 1.6 km/h 8 km/h 83 % 0 mm 0.0 W/m2 BKN
02:20 13.9 °C 11.1 °C 1018.2 hPa ESE 3.2 km/h 8 km/h 83 % 0 mm 0.0 W/m2 BKN
02:25 13.9 °C 11.1 °C 1017.8 hPa SE 3.2 km/h 9.7 km/h 83 % 0 mm 0.0 W/m2 BKN
02:30 13.9 °C 11.1 °C 1018.2 hPa SE 1.6 km/h 9.7 km/h 83 % 0 mm 0.0 W/m2 BKN
02:35 13.9 °C 11.1 °C 1018.2 hPa East 1.6 km/h 3.2 km/h 83 % 0 mm 0.0 W/m2 BKN
02:40 13.9 °C 11.1 °C 1017.8 hPa ESE 4.8 km/h 9.7 km/h 83 % 0 mm 0.0 W/m2 BKN
02:45 14 °C 10.9 °C 1017.8 hPa SE 1.6 km/h 9.7 km/h 82 % 0 mm 0.0 W/m2 BKN
02:50 14 °C 11 °C 1017.8 hPa SE 4.8 km/h 8 km/h 82 % 0 mm 0.0 W/m2 BKN
02:55 14 °C 11 °C 1017.5 hPa SSE 1.6 km/h 9.7 km/h 82 % 0 mm 0.0 W/m2 BKN
03:00 14 °C 11.2 °C 1017.5 hPa South 1.6 km/h 6.4 km/h 83 % 0 mm 0.0 W/m2 BKN
03:10 13.9 °C 11.2 °C 1018.2 hPa South 4.8 km/h 8 km/h 84 % 0 mm 0.0 W/m2 BKN
03:15 13.9 °C 11.2 °C 1018.2 hPa South 4.8 km/h 9.7 km/h 84 % 0 mm 0.0 W/m2 BKN
03:20 13.9 °C 11.2 °C 1017.8 hPa Calm   11.3 km/h 84 % 0 mm 0.0 W/m2 BKN
03:25 13.9 °C 11.4 °C 1017.5 hPa SE 3.2 km/h 11.3 km/h 85 % 0 mm 0.0 W/m2 BKN
03:30 14 °C 11.3 °C 1017.2 hPa SE 1.6 km/h 11.3 km/h 84 % 0 mm 0.0 W/m2 BKN
03:40 14.2 °C 11.9 °C 1016.1 hPa SSE 11.3 km/h 24.1 km/h 86 % 0.25 mm 0.0 W/m2 RA
03:45 14.5 °C 12.7 °C 1015.5 hPa South 22.5 km/h 35.4 km/h 89 % 0.51 mm 0.0 W/m2 RA
03:50 14.6 °C 13 °C 1015.1 hPa SSE 12.9 km/h 33.8 km/h 90 % 0 mm 0.0 W/m2 RA
03:55 14.6 °C 13.2 °C 1015.5 hPa SSE 14.5 km/h 24.1 km/h 91 % 0 mm 0.0 W/m2 BKN
04:00 14.6 °C 13.2 °C 1015.8 hPa South 14.5 km/h 22.5 km/h 91 % 0 mm 0.0 W/m2 BKN
04:10 14.8 °C 13.3 °C 1015.5 hPa South 20.9 km/h 25.7 km/h 91 % 0 mm 0.0 W/m2 BKN
04:15 14.9 °C 13.4 °C 1015.5 hPa South 12.9 km/h 25.7 km/h 91 % 0 mm 0.0 W/m2 BKN
04:20 15 °C 13.4 °C 1015.1 hPa SSE 9.7 km/h 20.9 km/h 90 % 0 mm 0.0 W/m2 BKN
04:25 15.1 °C 13.4 °C 1014.4 hPa SSE 1.6 km/h 12.9 km/h 90 % 0 mm 0.0 W/m2 BKN
04:30 15.2 °C 13.6 °C 1014.1 hPa SSE 4.8 km/h 12.9 km/h 90 % 0 mm 0.0 W/m2 BKN
04:35 15.2 °C 13.6 °C 1014.8 hPa South 14.5 km/h 24.1 km/h 90 % 0 mm 0.0 W/m2 BKN
04:40 15.4 °C 13.8 °C 1014.8 hPa South 11.3 km/h 24.1 km/h 90 % 0 mm 0.0 W/m2 BKN
04:45 15.4 °C 13.6 °C 1015.1 hPa SSE 9.7 km/h 17.7 km/h 89 % 0 mm 0.0 W/m2 BKN
04:50 15.5 °C 13.9 °C 1015.1 hPa SSE 9.7 km/h 12.9 km/h 90 % 0 mm 0.0 W/m2 BKN
04:55 15.6 °C 13.9 °C 1015.5 hPa South 11.3 km/h 20.9 km/h 90 % 0 mm 0.0 W/m2 BKN
05:00 15.7 °C 14.1 °C 1015.1 hPa South 11.3 km/h 20.9 km/h 90 % 0 mm 0.0 W/m2 BKN
05:05 15.8 °C 14.2 °C 1015.1 hPa South 9.7 km/h 12.9 km/h 90 % 0 mm 0.0 W/m2 BKN
05:15 16.1 °C 13.8 °C 1015.5 hPa South 9.7 km/h 12.9 km/h 86 % 0 mm 0.0 W/m2 BKN
05:20 16.1 °C 13.8 °C 1015.5 hPa SSE 8 km/h 14.5 km/h 86 % 0 mm 0.0 W/m2 -RA
05:25 16.2 °C 13.7 °C 1015.1 hPa SE 8 km/h 17.7 km/h 85 % 0 mm 0.0 W/m2 -RA
05:30 16.3 °C 13.8 °C 1014.8 hPa ESE 4.8 km/h 19.3 km/h 85 % 0 mm 0.0 W/m2 -RA
05:35 16.3 °C 13.8 °C 1014.8 hPa SSE 9.7 km/h 14.5 km/h 85 % 0 mm 0.0 W/m2 -RA
05:40 16.3 °C 13.6 °C 1014.8 hPa SSE 3.2 km/h 12.9 km/h 84 % 0 mm 0.0 W/m2 -RA
05:45 16.3 °C 13.6 °C 1014.8 hPa SSE 8 km/h 14.5 km/h 84 % 0 mm 0.0 W/m2 -RA
05:50 16.3 °C 13.8 °C 1014.8 hPa SSE 4.8 km/h 14.5 km/h 85 % 0 mm 0.0 W/m2 -RA
05:55 16.4 °C 13.9 °C 1014.4 hPa SSE 3.2 km/h 9.7 km/h 85 % 0 mm 0.0 W/m2 -RA
06:00 16.4 °C 13.9 °C 1014.4 hPa SSE 4.8 km/h 16.1 km/h 85 % 0 mm 0.0 W/m2 -RA
06:10 16.4 °C 13.9 °C 1014.8 hPa SSE 9.7 km/h 17.7 km/h 85 % 0 mm 0.0 W/m2 -RA
06:15 16.4 °C 13.9 °C 1015.1 hPa SSE 4.8 km/h 16.1 km/h 85 % 0 mm 0.0 W/m2 -RA
06:20 16.5 °C 13.9 °C 1015.1 hPa SSE 3.2 km/h 12.9 km/h 85 % 0 mm 0.0 W/m2 BKN
06:25 16.5 °C 13.8 °C 1015.8 hPa Calm   9.7 km/h 84 % 0 mm 0.0 W/m2 BKN
06:30 16.6 °C 13.9 °C 1015.5 hPa ESE 3.2 km/h 6.4 km/h 84 % 0 mm 0.0 W/m2 BKN
06:35 16.6 °C 13.9 °C 1016.1 hPa NNE 1.6 km/h 9.7 km/h 84 % 0.25 mm 0.0 W/m2 RA
06:40 16.5 °C 13.9 °C 1015.8 hPa NNE 1.6 km/h 4.8 km/h 85 % 0 mm 0.0 W/m2 RA
06:45 16.4 °C 13.9 °C 1015.5 hPa East 1.6 km/h 4.8 km/h 85 % 0 mm 0.0 W/m2 BKN
06:50 16.4 °C 14.1 °C 1015.5 hPa SE 1.6 km/h 4.8 km/h 86 % 0.25 mm 0.0 W/m2 -RA
06:55 16.3 °C 13.9 °C 1015.5 hPa SE 1.6 km/h 8 km/h 86 % 0 mm 0.0 W/m2 -RA
07:00 16.4 °C 14.1 °C 1015.5 hPa SE 3.2 km/h 9.7 km/h 86 % 0 mm 0.0 W/m2 -RA
07:05 16.4 °C 13.9 °C 1015.1 hPa SE 4.8 km/h 9.7 km/h 85 % 0 mm 0.0 W/m2 -RA
07:10 16.7 °C 14 °C 1015.1 hPa SE 3.2 km/h 9.7 km/h 84 % 0 mm 0.0 W/m2 -RA
07:20 16.7 °C 14.2 °C 1015.1 hPa ESE 1.6 km/h 4.8 km/h 85 % 0 mm 0.0 W/m2 -RA
07:25 16.6 °C 14.2 °C 1015.5 hPa SE 4.8 km/h 9.7 km/h 86 % 0 mm 0.0 W/m2 -RA
07:30 16.6 °C 14.4 °C 1015.5 hPa South 4.8 km/h 9.7 km/h 87 % 0 mm 0.0 W/m2 -RA
07:40 16.7 °C 14.7 °C 1015.5 hPa NNE 3.2 km/h 8 km/h 88 % 0 mm 0.0 W/m2 -RA
07:45 16.7 °C 14.7 °C 1015.5 hPa Calm   6.4 km/h 88 % 0 mm 0.0 W/m2 -RA
07:50 16.7 °C 14.7 °C 1015.5 hPa ENE 1.6 km/h 4.8 km/h 88 % 0 mm 0.0 W/m2 -RA
07:55 16.7 °C 14.7 °C 1015.1 hPa East 1.6 km/h 4.8 km/h 88 % 0 mm 0.0 W/m2 -RA
08:00 16.6 °C 14.6 °C 1014.8 hPa ESE 1.6 km/h 6.4 km/h 88 % 0 mm 0.0 W/m2 -RA
08:10 16.6 °C 14.8 °C 1015.5 hPa SSE 1.6 km/h 4.8 km/h 89 % 0 mm 0.0 W/m2 -RA
08:15 16.6 °C 14.8 °C 1015.8 hPa Calm   3.2 km/h 89 % 0 mm 0.0 W/m2 -RA
08:20 16.6 °C 14.8 °C 1015.8 hPa Calm   3.2 km/h 89 % 0 mm 0.0 W/m2 -RA
08:25 16.7 °C 14.9 °C 1015.5 hPa Calm   1.6 km/h 89 % 0 mm 0.0 W/m2 -RA
08:30 16.8 °C 15 °C 1015.5 hPa Calm   3.2 km/h 89 % 0 mm 0.0 W/m2 -RA
08:35 16.8 °C 15.2 °C 1015.5 hPa Calm   3.2 km/h 90 % 0 mm 0.0 W/m2 -RA
08:40 16.9 °C 15.2 °C 1015.8 hPa NE 1.6 km/h 4.8 km/h 90 % 0 mm 0.0 W/m2 -RA
08:50 17.1 °C 15.8 °C 1015.5 hPa Calm   3.2 km/h 92 % 0 mm 0.0 W/m2 -RA
08:55 17.2 °C 15.9 °C 1015.5 hPa Calm   4.8 km/h 92 % 0 mm 0.0 W/m2 -RA
09:00 18.2 °C 16.7 °C 1015.5 hPa NNE 1.6 km/h 9.7 km/h 91 % 0 mm 0.0 W/m2 -RA
09:05 18.2 °C 16.7 °C 1015.5 hPa NNE 4.8 km/h 9.7 km/h 91 % 0 mm 0.0 W/m2 -RA
09:10 18.3 °C 16.8 °C 1015.5 hPa NE 3.2 km/h 9.7 km/h 91 % 0 mm 0.0 W/m2 -RA
09:15 18.6 °C 17.1 °C 1015.1 hPa NE 1.6 km/h 4.8 km/h 91 % 0 mm 0.0 W/m2 -RA
09:20 18.9 °C 17.4 °C 1015.1 hPa ENE 1.6 km/h 4.8 km/h 91 % 0 mm 0.0 W/m2 -RA
09:25 19.4 °C 17.7 °C 1014.8 hPa NE 3.2 km/h 8 km/h 90 % 0 mm 0.0 W/m2 -RA
09:30 19.9 °C 18 °C 1014.8 hPa Calm   4.8 km/h 89 % 0 mm 0.0 W/m2 -RA
09:35 20.4 °C 18 °C 1014.8 hPa Calm   3.2 km/h 86 % 0 mm 0.0 W/m2 -RA
09:40 20.8 °C 17.8 °C 1014.8 hPa ENE 1.6 km/h 3.2 km/h 83 % 0 mm 0.0 W/m2 -RA
09:45 21.3 °C 17.5 °C 1015.1 hPa East 1.6 km/h 6.4 km/h 79 % 0 mm 0.0 W/m2 -RA
09:50 21.7 °C 17.7 °C 1015.1 hPa SSE 9.7 km/h 12.9 km/h 78 % 0 mm 0.0 W/m2 BKN
09:55 21.6 °C 16.8 °C 1015.1 hPa SSE 9.7 km/h 12.9 km/h 74 % 0 mm 0.0 W/m2 BKN
10:00 21.5 °C 16.7 °C 1014.8 hPa South 4.8 km/h 12.9 km/h 74 % 0 mm 0.0 W/m2 BKN
10:05 21.5 °C 16.7 °C 1014.8 hPa South 12.9 km/h 17.7 km/h 74 % 0.51 mm 0.0 W/m2 RA
10:10 21.5 °C 16.7 °C 1015.1 hPa South 4.8 km/h 17.7 km/h 74 % 0 mm 0.0 W/m2 RA
10:15 21.6 °C 17 °C 1014.8 hPa South 11.3 km/h 17.7 km/h 75 % 0 mm 0.0 W/m2 BKN
10:20 21.7 °C 16.9 °C 1014.8 hPa South 9.7 km/h 16.1 km/h 74 % 0 mm 0.0 W/m2 BKN
10:25 22 °C 17.2 °C 1015.1 hPa South 8 km/h 14.5 km/h 74 % 0 mm 0.0 W/m2 BKN
10:30 22.3 °C 17.4 °C 1014.8 hPa South 8 km/h 14.5 km/h 74 % 0 mm 0.0 W/m2 BKN
10:35 22.7 °C 17.8 °C 1015.1 hPa South 4.8 km/h 12.9 km/h 74 % 0 mm 0.0 W/m2 BKN
10:40 22.9 °C 17.6 °C 1014.8 hPa SSE 11.3 km/h 16.1 km/h 72 % 0 mm 0.0 W/m2 BKN
10:45 23.2 °C 17.7 °C 1014.8 hPa SSE 4.8 km/h 14.5 km/h 71 % 0 mm 0.0 W/m2 BKN
10:50 23.6 °C 17.6 °C 1014.8 hPa SSE 8 km/h 17.7 km/h 69 % 0 mm 0.0 W/m2 BKN
10:55 23.9 °C 17.6 °C 1014.4 hPa SSE 9.7 km/h 19.3 km/h 68 % 0 mm 0.0 W/m2 BKN
11:00 24.1 °C 17.6 °C 1014.4 hPa South 9.7 km/h 17.7 km/h 67 % 0 mm 0.0 W/m2 BKN
11:10 24.4 °C 17.9 °C 1014.1 hPa South 11.3 km/h 17.7 km/h 67 % 0 mm 0.0 W/m2 BKN
11:15 24.5 °C 17.9 °C 1014.4 hPa SSE 1.6 km/h 16.1 km/h 67 % 0 mm 0.0 W/m2 BKN
11:20 25.3 °C 18 °C 1014.4 hPa SE 11.3 km/h 17.7 km/h 64 % 0 mm 0.0 W/m2 BKN
11:25 25.3 °C 17.7 °C 1014.4 hPa SE 11.3 km/h 20.9 km/h 63 % 0 mm 0.0 W/m2 BKN
11:30 24.4 °C 17.4 °C 1014.4 hPa SSE 11.3 km/h 20.9 km/h 65 % 0 mm 0.0 W/m2 BKN
11:40 24.4 °C 17.4 °C 1014.4 hPa South 4.8 km/h 14.5 km/h 65 % 0 mm 0.0 W/m2 BKN
11:45 24.4 °C 17.4 °C 1014.1 hPa SSE 9.7 km/h 19.3 km/h 65 % 0 mm 0.0 W/m2 BKN
11:50 25.2 °C 17.4 °C 1014.1 hPa SE 4.8 km/h 14.5 km/h 62 % 0 mm 0.0 W/m2 BKN
11:55 25.3 °C 17.7 °C 1014.1 hPa SE 8 km/h 12.9 km/h 63 % 0 mm 0.0 W/m2 BKN
12:00 25.3 °C 17.5 °C 1014.1 hPa SSE 3.2 km/h 12.9 km/h 62 % 0 mm 0.0 W/m2 BKN
12:10 24.4 °C 17.2 °C 1014.1 hPa South 9.7 km/h 20.9 km/h 64 % 0 mm 0.0 W/m2 BKN
12:15 24.4 °C 17.9 °C 1014.1 hPa South 11.3 km/h 19.3 km/h 67 % 0 mm 0.0 W/m2 BKN
12:20 24.4 °C 17.6 °C 1014.1 hPa South 14.5 km/h 22.5 km/h 66 % 0 mm 0.0 W/m2 BKN
12:25 24.3 °C 17.1 °C 1014.1 hPa South 12.9 km/h 25.7 km/h 64 % 0 mm 0.0 W/m2 BKN
12:30 24.3 °C 17.6 °C 1014.1 hPa South 8 km/h 16.1 km/h 66 % 0 mm 0.0 W/m2 BKN
12:35 24.3 °C 17.8 °C 1014.1 hPa South 11.3 km/h 20.9 km/h 67 % 0 mm 0.0 W/m2 BKN
12:40 24.3 °C 17.8 °C 1014.1 hPa South 12.9 km/h 24.1 km/h 67 % 0 mm 0.0 W/m2 BKN
12:45 24.2 °C 17.7 °C 1014.1 hPa South 9.7 km/h 24.1 km/h 67 % 0 mm 0.0 W/m2 BKN
12:50 24.3 °C 17.8 °C 1014.1 hPa South 14.5 km/h 27.4 km/h 67 % 0 mm 0.0 W/m2 BKN
12:55 24.3 °C 17.3 °C 1014.1 hPa South 14.5 km/h 27.4 km/h 65 % 0 mm 0.0 W/m2 BKN
13:00 24.1 °C 16.9 °C 1014.1 hPa South 12.9 km/h 27.4 km/h 64 % 0 mm 0.0 W/m2 BKN
13:10 24.1 °C 17.1 °C 1013.8 hPa South 22.5 km/h 27.4 km/h 65 % 0 mm 0.0 W/m2 BKN
13:20 24.3 °C 17.1 °C 1013.8 hPa South 14.5 km/h 22.5 km/h 64 % 0 mm 0.0 W/m2 BKN
13:25 24.2 °C 16.9 °C 1013.4 hPa South 12.9 km/h 24.1 km/h 64 % 0 mm 0.0 W/m2 BKN
13:30 24.2 °C 17.2 °C 1013.8 hPa South 16.1 km/h 25.7 km/h 65 % 0 mm 0.0 W/m2 BKN
13:35 24.2 °C 16.9 °C 1013.4 hPa South 19.3 km/h 25.7 km/h 64 % 0 mm 0.0 W/m2 BKN
13:40 24.1 °C 16.6 °C 1013.8 hPa SSE 19.3 km/h 29 km/h 63 % 0 mm 0.0 W/m2 BKN
13:45 24.1 °C 16.8 °C 1013.4 hPa SSE 14.5 km/h 27.4 km/h 64 % 0 mm 0.0 W/m2 BKN
13:55 24.2 °C 16.7 °C 1013.4 hPa South 16.1 km/h 27.4 km/h 63 % 0 mm 0.0 W/m2 BKN
14:00 24.2 °C 17.2 °C 1013.4 hPa South 12.9 km/h 25.7 km/h 65 % 0 mm 0.0 W/m2 BKN
14:05 24.2 °C 16.9 °C 1013.4 hPa South 9.7 km/h 20.9 km/h 64 % 0 mm 0.0 W/m2 BKN
14:10 24.2 °C 17.2 °C 1013.1 hPa South 16.1 km/h 24.1 km/h 65 % 0 mm 0.0 W/m2 BKN
14:15 24.2 °C 16.9 °C 1013.4 hPa South 12.9 km/h 24.1 km/h 64 % 0 mm 0.0 W/m2 BKN
14:20 24.2 °C 16.9 °C 1013.1 hPa South 19.3 km/h 27.4 km/h 64 % 0 mm 0.0 W/m2 BKN
14:25 24.2 °C 16.7 °C 1013.1 hPa South 14.5 km/h 27.4 km/h 63 % 0 mm 0.0 W/m2 BKN
14:30 24.2 °C 16.7 °C 1013.1 hPa SSW 12.9 km/h 25.7 km/h 63 % 0 mm 0.0 W/m2 BKN
14:35 24.2 °C 16.4 °C 1013.1 hPa South 19.3 km/h 27.4 km/h 62 % 0 mm 0.0 W/m2 BKN
14:40 24.2 °C 16.4 °C 1013.1 hPa South 19.3 km/h 27.4 km/h 62 % 0 mm 0.0 W/m2 BKN
14:45 24.2 °C 16.4 °C 1012.8 hPa South 12.9 km/h 27.4 km/h 62 % 0 mm 0.0 W/m2 BKN
14:50 24.2 °C 16.7 °C 1012.4 hPa SSE 14.5 km/h 24.1 km/h 63 % 0 mm 0.0 W/m2 BKN
14:55 24.2 °C 16.7 °C 1012.8 hPa SSE 9.7 km/h 24.1 km/h 63 % 0 mm 0.0 W/m2 BKN
15:00 24.2 °C 16.7 °C 1012.4 hPa South 11.3 km/h 22.5 km/h 63 % 0 mm 0.0 W/m2 BKN
15:10 25.2 °C 17.2 °C 1012.8 hPa South 14.5 km/h 20.9 km/h 61 % 0 mm 0.0 W/m2 BKN
15:15 25.2 °C 17.4 °C 1012.4 hPa South 12.9 km/h 24.1 km/h 62 % 0 mm 0.0 W/m2 BKN
15:20 25.1 °C 17.3 °C 1012.1 hPa South 11.3 km/h 24.1 km/h 62 % 0 mm 0.0 W/m2 BKN
15:25 25.2 °C 17.7 °C 1012.4 hPa SSE 14.5 km/h 19.3 km/h 63 % 0 mm 0.0 W/m2 BKN
15:30 25.2 °C 17.4 °C 1012.4 hPa SSE 9.7 km/h 19.3 km/h 62 % 0 mm 0.0 W/m2 BKN
15:35 25.2 °C 17.4 °C 1012.4 hPa South 11.3 km/h 17.7 km/h 62 % 0 mm 0.0 W/m2 BKN
15:40 25.2 °C 17.7 °C 1012.1 hPa SSW 12.9 km/h 17.7 km/h 63 % 0 mm 0.0 W/m2 BKN
15:45 25.3 °C 17.7 °C 1012.1 hPa South 8 km/h 19.3 km/h 63 % 0 mm 0.0 W/m2 BKN
15:50 25.6 °C 18.1 °C 1012.1 hPa SSE 14.5 km/h 20.9 km/h 63 % 0 mm 0.0 W/m2 BKN
15:55 25.6 °C 17.5 °C 1012.1 hPa South 9.7 km/h 20.9 km/h 61 % 0 mm 0.0 W/m2 BKN
16:00 25.4 °C 17.3 °C 1012.1 hPa South 9.7 km/h 12.9 km/h 61 % 0 mm 0.0 W/m2 BKN
16:10 25.2 °C 17.4 °C 1012.1 hPa SSE 8 km/h 16.1 km/h 62 % 0 mm 0.0 W/m2 BKN
16:15 25.2 °C 17.4 °C 1011.7 hPa South 4.8 km/h 17.7 km/h 62 % 0 mm 0.0 W/m2 BKN
16:20 25.3 °C 17.5 °C 1012.1 hPa South 9.7 km/h 16.1 km/h 62 % 0 mm 0.0 W/m2 BKN
16:25 25.3 °C 17.5 °C 1011.7 hPa South 9.7 km/h 19.3 km/h 62 % 0 mm 0.0 W/m2 BKN
16:30 25.2 °C 17.7 °C 1011.7 hPa South 9.7 km/h 14.5 km/h 63 % 0 mm 0.0 W/m2 BKN
16:35 25.2 °C 17.7 °C 1011.7 hPa South 14.5 km/h 20.9 km/h 63 % 0 mm 0.0 W/m2 BKN
16:40 25.2 °C 17.7 °C 1011.7 hPa South 9.7 km/h 20.9 km/h 63 % 0 mm 0.0 W/m2 BKN
16:45 24.3 °C 17.3 °C 1011.7 hPa SSW 12.9 km/h 20.9 km/h 65 % 0 mm 0.0 W/m2 BKN
16:50 24.2 °C 17.7 °C 1012.1 hPa WSW 9.7 km/h 20.9 km/h 67 % 0 mm 0.0 W/m2 BKN
16:55 24.2 °C 18.2 °C 1012.1 hPa West 12.9 km/h 22.5 km/h 69 % 0 mm 0.0 W/m2 BKN
17:00 24.1 °C 18.1 °C 1012.1 hPa WNW 8 km/h 19.3 km/h 69 % 0 mm 0.0 W/m2 BKN
17:05 24.1 °C 18.1 °C 1012.1 hPa West 12.9 km/h 24.1 km/h 69 % 0 mm 0.0 W/m2 BKN
17:10 23.8 °C 18 °C 1012.1 hPa WSW 12.9 km/h 20.9 km/h 70 % 0 mm 0.0 W/m2 BKN
17:15 23.7 °C 17.9 °C 1012.1 hPa WNW 11.3 km/h 24.1 km/h 70 % 0 mm 0.0 W/m2 BKN
17:20 23.8 °C 18 °C 1012.4 hPa West 12.9 km/h 24.1 km/h 70 % 0 mm 0.0 W/m2 BKN
17:30 23.3 °C 17.5 °C 1012.4 hPa NW 11.3 km/h 20.9 km/h 70 % 0 mm 0.0 W/m2 BKN
17:35 23.4 °C 17.6 °C 1012.1 hPa WNW 8 km/h 19.3 km/h 70 % 0 mm 0.0 W/m2 BKN
17:40 23.4 °C 17.6 °C 1012.4 hPa West 9.7 km/h 20.9 km/h 70 % 0 mm 0.0 W/m2 BKN
17:45 23.2 °C 17 °C 1012.4 hPa West 11.3 km/h 20.9 km/h 68 % 0 mm 0.0 W/m2 BKN
17:50 22.9 °C 17.4 °C 1012.1 hPa WNW 9.7 km/h 17.7 km/h 71 % 0 mm 0.0 W/m2 BKN
17:55 22.6 °C 17.1 °C 1012.4 hPa WNW 12.9 km/h 22.5 km/h 71 % 0 mm 0.0 W/m2 BKN
18:00 22.4 °C 16.9 °C 1012.4 hPa West 9.7 km/h 20.9 km/h 71 % 0 mm 0.0 W/m2 BKN
18:05 22.3 °C 17 °C 1012.4 hPa NW 12.9 km/h 22.5 km/h 72 % 0 mm 0.0 W/m2 BKN
18:10 22.3 °C 17 °C 1012.1 hPa WNW 11.3 km/h 20.9 km/h 72 % 0 mm 0.0 W/m2 BKN
18:15 22.1 °C 16.8 °C 1012.4 hPa WNW 12.9 km/h 20.9 km/h 72 % 0 mm 0.0 W/m2 BKN
18:20 21.9 °C 16.4 °C 1012.4 hPa WNW 8 km/h 20.9 km/h 71 % 0 mm 0.0 W/m2 BKN
18:25 21.7 °C 16.2 °C 1012.4 hPa WNW 11.3 km/h 19.3 km/h 71 % 0 mm 0.0 W/m2 BKN
18:30 21.4 °C 16.2 °C 1012.8 hPa NW 12.9 km/h 22.5 km/h 72 % 0 mm 0.0 W/m2 BKN
18:35 21.2 °C 15.9 °C 1012.4 hPa NW 9.7 km/h 22.5 km/h 72 % 0 mm 0.0 W/m2 BKN
18:40 20.9 °C 15.9 °C 1012.1 hPa WNW 11.3 km/h 24.1 km/h 73 % 0 mm 0.0 W/m2 BKN
18:45 20.7 °C 15.7 °C 1012.8 hPa West 12.9 km/h 20.9 km/h 73 % 0 mm 0.0 W/m2 BKN
18:50 20.4 °C 15.4 °C 1012.8 hPa WNW 11.3 km/h 22.5 km/h 73 % 0 mm 0.0 W/m2 BKN
18:55 20.2 °C 15.4 °C 1012.8 hPa WNW 11.3 km/h 22.5 km/h 74 % 0 mm 0.0 W/m2 BKN
19:00 19.9 °C 15.3 °C 1012.8 hPa WNW 9.7 km/h 22.5 km/h 75 % 0 mm 0.0 W/m2 BKN
19:10 19.5 °C 14.9 °C 1012.8 hPa NW 9.7 km/h 20.9 km/h 75 % 0 mm 0.0 W/m2 BKN
19:15 19.4 °C 15.1 °C 1012.8 hPa NW 9.7 km/h 20.9 km/h 76 % 0 mm 0.0 W/m2 BKN
19:20 19.3 °C 14.9 °C 1012.8 hPa WNW 12.9 km/h 24.1 km/h 76 % 0 mm 0.0 W/m2 BKN
19:25 19.1 °C 14.8 °C 1012.8 hPa WNW 9.7 km/h 24.1 km/h 76 % 0 mm 0.0 W/m2 BKN
19:35 18.7 °C 14.8 °C 1012.8 hPa WNW 12.9 km/h 20.9 km/h 78 % 0 mm 0.0 W/m2 BKN
19:40 18.7 °C 14.8 °C 1013.1 hPa WNW 9.7 km/h 20.9 km/h 78 % 0 mm 0.0 W/m2 BKN
19:45 18.6 °C 14.7 °C 1013.1 hPa NNW 9.7 km/h 19.3 km/h 78 % 0 mm 0.0 W/m2 BKN
19:50 18.6 °C 14.9 °C 1012.8 hPa NW 9.7 km/h 17.7 km/h 79 % 0 mm 0.0 W/m2 BKN
19:55 18.6 °C 14.9 °C 1013.1 hPa West 9.7 km/h 16.1 km/h 79 % 0 mm 0.0 W/m2 BKN
20:00 18.6 °C 14.9 °C 1013.1 hPa WNW 4.8 km/h 14.5 km/h 79 % 0 mm 0.0 W/m2 BKN
20:10 18.5 °C 15 °C 1012.8 hPa WNW 9.7 km/h 19.3 km/h 80 % 0 mm 0.0 W/m2 BKN
20:15 18.4 °C 14.9 °C 1013.1 hPa WNW 8 km/h 12.9 km/h 80 % 0 mm 0.0 W/m2 BKN
20:20 18.3 °C 14.8 °C 1013.1 hPa WNW 9.7 km/h 12.9 km/h 80 % 0 mm 0.0 W/m2 BKN
20:25 18.3 °C 14.8 °C 1013.1 hPa West 4.8 km/h 12.9 km/h 80 % 0 mm 0.0 W/m2 BKN
20:30 18.3 °C 14.8 °C 1013.1 hPa WNW 4.8 km/h 12.9 km/h 80 % 0 mm 0.0 W/m2 BKN
20:35 18.3 °C 15 °C 1013.1 hPa NW 8 km/h 12.9 km/h 81 % 0 mm 0.0 W/m2 BKN
20:40 18.3 °C 14.8 °C 1013.1 hPa WNW 4.8 km/h 16.1 km/h 80 % 0 mm 0.0 W/m2 BKN
20:45 18.3 °C 14.8 °C 1013.1 hPa WNW 8 km/h 12.9 km/h 80 % 0 mm 0.0 W/m2 BKN
20:55 18.3 °C 14.8 °C 1012.8 hPa West 8 km/h 12.9 km/h 80 % 0 mm 0.0 W/m2 BKN
21:00 18.3 °C 15 °C 1013.1 hPa WNW 4.8 km/h 12.9 km/h 81 % 0 mm 0.0 W/m2 BKN
21:05 18.2 °C 14.9 °C 1013.1 hPa WNW 8 km/h 11.3 km/h 81 % 0 mm 0.0 W/m2 BKN
21:10 18.2 °C 14.9 °C 1013.1 hPa West 3.2 km/h 11.3 km/h 81 % 0 mm 0.0 W/m2 BKN
21:15 18.1 °C 14.8 °C 1013.1 hPa WNW 9.7 km/h 14.5 km/h 81 % 0 mm 0.0 W/m2 BKN
21:20 18 °C 14.7 °C 1013.4 hPa WNW 8 km/h 14.5 km/h 81 % 0 mm 0.0 W/m2 BKN
21:30 17.9 °C 14.8 °C 1013.1 hPa West 4.8 km/h 12.9 km/h 82 % 0 mm 0.0 W/m2 BKN
21:35 17.8 °C 14.7 °C 1013.1 hPa WNW 4.8 km/h 17.7 km/h 82 % 0 mm 0.0 W/m2 BKN
21:40 17.7 °C 14.6 °C 1013.4 hPa WNW 9.7 km/h 17.7 km/h 82 % 0 mm 0.0 W/m2 BKN
21:45 17.6 °C 14.3 °C 1013.1 hPa WSW 8 km/h 16.1 km/h 81 % 0 mm 0.0 W/m2 BKN
21:50 17.5 °C 14 °C 1013.1 hPa West 9.7 km/h 19.3 km/h 80 % 0 mm 0.0 W/m2 BKN
21:55 17.4 °C 13.9 °C 1013.4 hPa WNW 9.7 km/h 20.9 km/h 80 % 0 mm 0.0 W/m2 BKN
22:00 17.3 °C 13.8 °C 1013.4 hPa NW 9.7 km/h 16.1 km/h 80 % 0 mm 0.0 W/m2 BKN
22:05 17.2 °C 13.7 °C 1013.4 hPa WNW 8 km/h 14.5 km/h 80 % 0 mm 0.0 W/m2 BKN
22:10 17.1 °C 13.4 °C 1013.4 hPa NW 4.8 km/h 14.5 km/h 79 % 0 mm 0.0 W/m2 BKN
22:15 17.1 °C 13.4 °C 1013.4 hPa NW 9.7 km/h 20.9 km/h 79 % 0 mm 0.0 W/m2 BKN
22:20 17 °C 13.3 °C 1013.4 hPa West 4.8 km/h 16.1 km/h 79 % 0 mm 0.0 W/m2 BKN
22:25 16.9 °C 13.1 °C 1013.8 hPa West 9.7 km/h 17.7 km/h 78 % 0 mm 0.0 W/m2 BKN
22:30 16.9 °C 12.8 °C 1013.4 hPa WNW 4.8 km/h 20.9 km/h 77 % 0 mm 0.0 W/m2 BKN
22:35 16.7 °C 12.7 °C 1013.4 hPa WNW 4.8 km/h 20.9 km/h 77 % 0 mm 0.0 W/m2 BKN
22:40 16.7 °C 12.7 °C 1013.4 hPa WNW 9.7 km/h 16.1 km/h 77 % 0 mm 0.0 W/m2 BKN
22:45 16.6 °C 12.6 °C 1013.4 hPa WNW 8 km/h 12.9 km/h 77 % 0 mm 0.0 W/m2 BKN
22:50 15.8 °C 11.9 °C 1013.4 hPa NW 4.8 km/h 11.3 km/h 78 % 0 mm 0.0 W/m2 BKN
22:55 15.7 °C 11.9 °C 1013.4 hPa WNW 9.7 km/h 12.9 km/h 78 % 0 mm 0.0 W/m2 BKN
23:00 15.7 °C 12.1 °C 1013.4 hPa WNW 4.8 km/h 14.5 km/h 79 % 0 mm 0.0 W/m2 BKN
23:05 15.7 °C 11.9 °C 1013.8 hPa West 9.7 km/h 12.9 km/h 78 % 0 mm 0.0 W/m2 BKN
23:10 15.6 °C 11.8 °C 1013.4 hPa West 4.8 km/h 12.9 km/h 78 % 0 mm 0.0 W/m2 BKN
23:15 15.6 °C 11.8 °C 1013.8 hPa West 4.8 km/h 11.3 km/h 78 % 0 mm 0.0 W/m2 BKN
23:20 15.6 °C 11.8 °C 1013.8 hPa WSW 8 km/h 12.9 km/h 78 % 0 mm 0.0 W/m2 BKN
23:25 15.5 °C 11.7 °C 1013.8 hPa WSW 8 km/h 12.9 km/h 78 % 0 mm 0.0 W/m2 BKN
23:30 15.5 °C 11.7 °C 1013.8 hPa WNW 9.7 km/h 19.3 km/h 78 % 0 mm 0.0 W/m2 BKN
23:35 15.5 °C 11.7 °C 1014.1 hPa WNW 3.2 km/h 16.1 km/h 78 % 0 mm 0.0 W/m2 BKN
23:40 15.4 °C 11.8 °C 1014.1 hPa West 3.2 km/h 14.5 km/h 79 % 0 mm 0.0 W/m2 BKN
23:45 15.4 °C 11.8 °C 1013.8 hPa West 8 km/h 12.9 km/h 79 % 0 mm 0.0 W/m2 BKN
23:50 15.4 °C 11.8 °C 1013.8 hPa West 4.8 km/h 12.9 km/h 79 % 0 mm 0.0 W/m2 BKN
23:55 15.3 °C 11.9 °C 1013.8 hPa WNW 8 km/h 12.9 km/h 80 % 0 mm 0.0 W/m2 BKN
Garrymore Weather Station, Geashill, Tullamore, Offaly, Ireland
Compliments of Weather Underground - 2.25 mb